sensor_id;sensor_type;location;lat;lon;timestamp;P1;P2;P0
77320;PMS7003;66382;52.252;8.780;2023-02-28T00:00:28;6.00;6.00;5.00
77320;PMS7003;66382;52.252;8.780;2023-02-28T00:02:54;7.00;7.00;6.00
77320;PMS7003;66382;52.252;8.780;2023-02-28T00:05:20;8.25;8.25;6.75
77320;PMS7003;66382;52.252;8.780;2023-02-28T00:07:47;7.00;7.00;6.00
77320;PMS7003;66382;52.252;8.780;2023-02-28T00:10:16;7.25;7.25;6.50
77320;PMS7003;66382;52.252;8.780;2023-02-28T00:12:45;9.50;9.50;7.00
77320;PMS7003;66382;52.252;8.780;2023-02-28T00:15:11;10.75;10.75;8.00
77320;PMS7003;66382;52.252;8.780;2023-02-28T00:17:37;5.00;5.00;3.00
77320;PMS7003;66382;52.252;8.780;2023-02-28T00:20:04;11.00;11.00;9.00
77320;PMS7003;66382;52.252;8.780;2023-02-28T00:22:31;11.00;11.00;9.00
77320;PMS7003;66382;52.252;8.780;2023-02-28T00:24:57;10.25;10.25;8.25
77320;PMS7003;66382;52.252;8.780;2023-02-28T00:27:23;10.75;10.75;8.00
77320;PMS7003;66382;52.252;8.780;2023-02-28T00:29:50;11.25;11.25;9.75
77320;PMS7003;66382;52.252;8.780;2023-02-28T00:32:16;6.75;6.75;6.00
77320;PMS7003;66382;52.252;8.780;2023-02-28T00:34:41;7.25;7.25;6.50
77320;PMS7003;66382;52.252;8.780;2023-02-28T00:37:08;5.00;5.00;4.50
77320;PMS7003;66382;52.252;8.780;2023-02-28T00:39:36;10.75;9.50;7.00
77320;PMS7003;66382;52.252;8.780;2023-02-28T00:42:03;7.75;7.75;6.50
77320;PMS7003;66382;52.252;8.780;2023-02-28T00:44:29;7.75;7.75;6.00
77320;PMS7003;66382;52.252;8.780;2023-02-28T00:46:56;13.75;13.75;11.25
77320;PMS7003;66382;52.252;8.780;2023-02-28T00:49:22;15.00;15.00;11.00
77320;PMS7003;66382;52.252;8.780;2023-02-28T00:51:48;11.75;11.25;10.00
77320;PMS7003;66382;52.252;8.780;2023-02-28T00:54:14;10.75;10.75;10.00
77320;PMS7003;66382;52.252;8.780;2023-02-28T00:56:40;13.00;13.00;10.25
77320;PMS7003;66382;52.252;8.780;2023-02-28T00:59:06;18.00;18.00;11.00
77320;PMS7003;66382;52.252;8.780;2023-02-28T01:01:31;16.50;16.50;11.75
77320;PMS7003;66382;52.252;8.780;2023-02-28T01:03:59;13.75;13.75;11.00
77320;PMS7003;66382;52.252;8.780;2023-02-28T01:06:25;12.00;12.00;10.50
77320;PMS7003;66382;52.252;8.780;2023-02-28T01:08:50;15.00;15.00;11.00
77320;PMS7003;66382;52.252;8.780;2023-02-28T01:11:16;14.50;14.50;11.00
77320;PMS7003;66382;52.252;8.780;2023-02-28T01:13:44;15.00;15.00;12.00
77320;PMS7003;66382;52.252;8.780;2023-02-28T01:16:11;19.75;19.75;15.25
77320;PMS7003;66382;52.252;8.780;2023-02-28T01:18:37;14.50;14.50;12.25
77320;PMS7003;66382;52.252;8.780;2023-02-28T01:21:05;16.75;16.75;12.25
77320;PMS7003;66382;52.252;8.780;2023-02-28T01:23:31;15.75;15.75;13.25
77320;PMS7003;66382;52.252;8.780;2023-02-28T01:25:57;17.75;15.75;12.00
77320;PMS7003;66382;52.252;8.780;2023-02-28T01:28:29;19.75;19.75;15.00
77320;PMS7003;66382;52.252;8.780;2023-02-28T01:30:55;23.75;23.00;18.00
77320;PMS7003;66382;52.252;8.780;2023-02-28T01:33:20;24.50;24.50;18.00
77320;PMS7003;66382;52.252;8.780;2023-02-28T01:35:46;23.50;23.50;16.75
77320;PMS7003;66382;52.252;8.780;2023-02-28T01:38:13;21.50;20.00;14.00
77320;PMS7003;66382;52.252;8.780;2023-02-28T01:40:39;21.25;21.25;16.75
77320;PMS7003;66382;52.252;8.780;2023-02-28T01:43:05;19.25;19.25;15.00
77320;PMS7003;66382;52.252;8.780;2023-02-28T01:45:45;13.50;13.50;10.00
77320;PMS7003;66382;52.252;8.780;2023-02-28T01:48:10;19.00;19.00;14.75
77320;PMS7003;66382;52.252;8.780;2023-02-28T01:50:37;19.75;19.75;15.50
77320;PMS7003;66382;52.252;8.780;2023-02-28T01:53:06;17.50;17.50;15.00
77320;PMS7003;66382;52.252;8.780;2023-02-28T01:55:37;16.00;16.00;11.75
77320;PMS7003;66382;52.252;8.780;2023-02-28T01:58:05;16.00;16.00;14.00
77320;PMS7003;66382;52.252;8.780;2023-02-28T02:00:32;16.00;16.00;13.00
77320;PMS7003;66382;52.252;8.780;2023-02-28T02:02:58;18.75;18.75;14.25
77320;PMS7003;66382;52.252;8.780;2023-02-28T02:05:29;16.25;16.25;13.50
77320;PMS7003;66382;52.252;8.780;2023-02-28T02:07:56;18.00;18.00;13.50
77320;PMS7003;66382;52.252;8.780;2023-02-28T02:10:27;17.50;17.50;13.50
77320;PMS7003;66382;52.252;8.780;2023-02-28T02:13:03;13.75;13.75;10.50
77320;PMS7003;66382;52.252;8.780;2023-02-28T02:15:39;15.00;15.00;12.50
77320;PMS7003;66382;52.252;8.780;2023-02-28T02:18:12;19.50;19.25;14.25
77320;PMS7003;66382;52.252;8.780;2023-02-28T02:26:55;21.00;21.00;14.00
77320;PMS7003;66382;52.252;8.780;2023-02-28T02:29:40;20.50;19.75;15.00
77320;PMS7003;66382;52.252;8.780;2023-02-28T02:35:26;18.75;18.25;14.00
77320;PMS7003;66382;52.252;8.780;2023-02-28T02:37:57;16.75;16.75;13.00
77320;PMS7003;66382;52.252;8.780;2023-02-28T02:40:30;15.25;15.25;12.25
77320;PMS7003;66382;52.252;8.780;2023-02-28T02:43:02;18.00;18.00;13.00
77320;PMS7003;66382;52.252;8.780;2023-02-28T02:45:32;15.25;15.25;13.75
77320;PMS7003;66382;52.252;8.780;2023-02-28T02:48:02;21.50;21.50;15.75
77320;PMS7003;66382;52.252;8.780;2023-02-28T02:50:33;20.25;20.25;14.75
77320;PMS7003;66382;52.252;8.780;2023-02-28T02:53:03;22.00;20.75;15.00
77320;PMS7003;66382;52.252;8.780;2023-02-28T02:55:33;18.50;18.50;13.50
77320;PMS7003;66382;52.252;8.780;2023-02-28T02:58:04;18.25;18.25;14.25
77320;PMS7003;66382;52.252;8.780;2023-02-28T03:00:35;18.00;18.00;14.50
77320;PMS7003;66382;52.252;8.780;2023-02-28T03:03:04;22.00;22.00;16.75
77320;PMS7003;66382;52.252;8.780;2023-02-28T03:05:35;19.00;19.00;14.25
77320;PMS7003;66382;52.252;8.780;2023-02-28T03:08:07;26.25;26.25;18.00
77320;PMS7003;66382;52.252;8.780;2023-02-28T03:10:35;23.00;23.00;17.00
77320;PMS7003;66382;52.252;8.780;2023-02-28T03:13:15;24.50;24.50;16.75
77320;PMS7003;66382;52.252;8.780;2023-02-28T03:16:14;21.75;21.75;18.00
77320;PMS7003;66382;52.252;8.780;2023-02-28T03:18:54;23.25;23.25;17.25
77320;PMS7003;66382;52.252;8.780;2023-02-28T03:21:30;17.25;17.25;14.50
77320;PMS7003;66382;52.252;8.780;2023-02-28T03:24:03;22.50;22.50;17.00
77320;PMS7003;66382;52.252;8.780;2023-02-28T03:26:34;22.00;21.00;17.25
77320;PMS7003;66382;52.252;8.780;2023-02-28T03:29:04;22.75;22.75;18.00
77320;PMS7003;66382;52.252;8.780;2023-02-28T03:31:36;23.00;23.00;19.25
77320;PMS7003;66382;52.252;8.780;2023-02-28T03:34:06;22.50;22.50;17.75
77320;PMS7003;66382;52.252;8.780;2023-02-28T03:36:37;24.25;23.00;17.50
77320;PMS7003;66382;52.252;8.780;2023-02-28T03:39:07;21.50;21.50;17.75
77320;PMS7003;66382;52.252;8.780;2023-02-28T03:41:38;23.75;23.75;18.00
77320;PMS7003;66382;52.252;8.780;2023-02-28T03:44:09;19.25;19.25;16.50
77320;PMS7003;66382;52.252;8.780;2023-02-28T03:46:39;21.00;21.00;16.50
77320;PMS7003;66382;52.252;8.780;2023-02-28T03:49:12;19.25;19.25;14.00
77320;PMS7003;66382;52.252;8.780;2023-02-28T03:51:43;16.00;16.00;13.00
77320;PMS7003;66382;52.252;8.780;2023-02-28T03:54:12;18.25;17.00;13.25
77320;PMS7003;66382;52.252;8.780;2023-02-28T03:56:45;13.50;13.50;12.50
77320;PMS7003;66382;52.252;8.780;2023-02-28T03:59:17;18.00;18.00;13.25
77320;PMS7003;66382;52.252;8.780;2023-02-28T04:01:48;12.75;12.75;12.25
77320;PMS7003;66382;52.252;8.780;2023-02-28T04:04:15;16.75;16.75;12.75
77320;PMS7003;66382;52.252;8.780;2023-02-28T04:06:43;12.25;11.25;9.00
77320;PMS7003;66382;52.252;8.780;2023-02-28T04:09:10;13.50;13.50;10.50
77320;PMS7003;66382;52.252;8.780;2023-02-28T04:11:38;13.00;13.00;11.25
77320;PMS7003;66382;52.252;8.780;2023-02-28T04:14:07;12.75;12.75;9.00
77320;PMS7003;66382;52.252;8.780;2023-02-28T04:16:36;10.00;10.00;9.00
77320;PMS7003;66382;52.252;8.780;2023-02-28T04:19:03;13.25;13.25;11.00
77320;PMS7003;66382;52.252;8.780;2023-02-28T04:21:30;9.75;9.75;8.25
77320;PMS7003;66382;52.252;8.780;2023-02-28T04:23:58;10.00;10.00;8.00
77320;PMS7003;66382;52.252;8.780;2023-02-28T04:26:23;8.50;8.50;7.25
77320;PMS7003;66382;52.252;8.780;2023-02-28T04:28:49;8.50;8.50;7.75
77320;PMS7003;66382;52.252;8.780;2023-02-28T04:31:15;9.00;9.00;8.00
77320;PMS7003;66382;52.252;8.780;2023-02-28T04:33:41;7.25;7.25;6.00
77320;PMS7003;66382;52.252;8.780;2023-02-28T04:36:07;6.00;6.00;5.00
77320;PMS7003;66382;52.252;8.780;2023-02-28T04:38:34;3.75;3.75;3.25
77320;PMS7003;66382;52.252;8.780;2023-02-28T04:41:03;3.25;3.25;2.25
77320;PMS7003;66382;52.252;8.780;2023-02-28T04:43:30;4.00;4.00;2.00
77320;PMS7003;66382;52.252;8.780;2023-02-28T04:45:56;9.50;9.50;8.50
77320;PMS7003;66382;52.252;8.780;2023-02-28T04:48:27;5.75;5.75;5.00
77320;PMS7003;66382;52.252;8.780;2023-02-28T04:50:53;2.00;2.00;1.25
77320;PMS7003;66382;52.252;8.780;2023-02-28T04:53:19;3.50;3.50;2.75
77320;PMS7003;66382;52.252;8.780;2023-02-28T04:55:46;1.00;1.00;1.00
77320;PMS7003;66382;52.252;8.780;2023-02-28T04:58:13;2.00;2.00;2.00
77320;PMS7003;66382;52.252;8.780;2023-02-28T05:00:40;4.75;4.75;4.00
77320;PMS7003;66382;52.252;8.780;2023-02-28T05:03:05;5.75;5.75;5.00
77320;PMS7003;66382;52.252;8.780;2023-02-28T05:05:31;3.50;3.50;3.50
77320;PMS7003;66382;52.252;8.780;2023-02-28T05:07:57;2.00;2.00;2.00
77320;PMS7003;66382;52.252;8.780;2023-02-28T05:10:22;2.00;2.00;2.00
77320;PMS7003;66382;52.252;8.780;2023-02-28T05:12:48;2.00;2.00;2.00
77320;PMS7003;66382;52.252;8.780;2023-02-28T05:15:16;2.00;2.00;2.00
77320;PMS7003;66382;52.252;8.780;2023-02-28T05:17:42;4.00;4.00;2.25
77320;PMS7003;66382;52.252;8.780;2023-02-28T05:20:09;2.00;2.00;1.75
77320;PMS7003;66382;52.252;8.780;2023-02-28T05:22:35;2.00;2.00;2.00
77320;PMS7003;66382;52.252;8.780;2023-02-28T05:25:01;2.00;2.00;2.00
77320;PMS7003;66382;52.252;8.780;2023-02-28T05:27:27;3.50;3.50;3.00
77320;PMS7003;66382;52.252;8.780;2023-02-28T05:29:53;4.00;4.00;4.00
77320;PMS7003;66382;52.252;8.780;2023-02-28T05:32:20;5.00;5.00;4.25
77320;PMS7003;66382;52.252;8.780;2023-02-28T05:34:46;4.00;4.00;3.00
77320;PMS7003;66382;52.252;8.780;2023-02-28T05:37:15;4.00;4.00;4.00
77320;PMS7003;66382;52.252;8.780;2023-02-28T05:39:41;3.50;3.50;2.00
77320;PMS7003;66382;52.252;8.780;2023-02-28T05:42:07;5.00;5.00;4.00
77320;PMS7003;66382;52.252;8.780;2023-02-28T05:44:33;6.00;6.00;5.00
77320;PMS7003;66382;52.252;8.780;2023-02-28T05:46:59;4.00;4.00;3.50
77320;PMS7003;66382;52.252;8.780;2023-02-28T05:49:26;4.00;4.00;4.00
77320;PMS7003;66382;52.252;8.780;2023-02-28T05:51:51;2.00;2.00;2.00
77320;PMS7003;66382;52.252;8.780;2023-02-28T05:54:17;3.00;3.00;2.50
77320;PMS7003;66382;52.252;8.780;2023-02-28T05:56:43;4.25;4.25;4.00
77320;PMS7003;66382;52.252;8.780;2023-02-28T05:59:09;5.75;5.75;4.25
77320;PMS7003;66382;52.252;8.780;2023-02-28T06:01:35;4.50;4.50;4.00
77320;PMS7003;66382;52.252;8.780;2023-02-28T06:04:03;4.00;4.00;2.50
77320;PMS7003;66382;52.252;8.780;2023-02-28T06:06:31;5.00;5.00;4.75
77320;PMS7003;66382;52.252;8.780;2023-02-28T06:08:58;4.25;4.25;3.00
77320;PMS7003;66382;52.252;8.780;2023-02-28T06:11:24;11.25;11.25;8.75
77320;PMS7003;66382;52.252;8.780;2023-02-28T06:13:50;12.25;12.25;8.25
77320;PMS7003;66382;52.252;8.780;2023-02-28T06:16:19;11.25;11.25;9.75
77320;PMS7003;66382;52.252;8.780;2023-02-28T06:18:44;10.25;10.25;9.00
77320;PMS7003;66382;52.252;8.780;2023-02-28T06:21:10;14.25;13.25;11.75
77320;PMS7003;66382;52.252;8.780;2023-02-28T06:23:38;11.75;11.75;9.00
77320;PMS7003;66382;52.252;8.780;2023-02-28T06:26:04;12.25;12.25;11.00
77320;PMS7003;66382;52.252;8.780;2023-02-28T06:28:31;13.50;13.50;12.00
77320;PMS7003;66382;52.252;8.780;2023-02-28T06:30:56;15.50;15.50;12.00
77320;PMS7003;66382;52.252;8.780;2023-02-28T06:33:22;11.75;11.75;10.75
77320;PMS7003;66382;52.252;8.780;2023-02-28T06:35:49;13.00;13.00;12.00
77320;PMS7003;66382;52.252;8.780;2023-02-28T06:38:16;13.25;13.25;11.25
77320;PMS7003;66382;52.252;8.780;2023-02-28T06:40:43;9.00;9.00;8.75
77320;PMS7003;66382;52.252;8.780;2023-02-28T06:43:09;13.25;13.25;9.75
77320;PMS7003;66382;52.252;8.780;2023-02-28T06:45:35;18.50;17.25;12.25
77320;PMS7003;66382;52.252;8.780;2023-02-28T06:48:00;13.50;13.50;12.00
77320;PMS7003;66382;52.252;8.780;2023-02-28T06:50:26;13.50;13.50;12.75
77320;PMS7003;66382;52.252;8.780;2023-02-28T06:52:52;14.00;14.00;13.00
77320;PMS7003;66382;52.252;8.780;2023-02-28T06:55:17;15.50;15.50;13.00
77320;PMS7003;66382;52.252;8.780;2023-02-28T06:57:44;18.50;18.50;13.75
77320;PMS7003;66382;52.252;8.780;2023-02-28T07:00:12;19.50;19.50;14.00
77320;PMS7003;66382;52.252;8.780;2023-02-28T07:02:39;20.00;20.00;16.25
77320;PMS7003;66382;52.252;8.780;2023-02-28T07:05:05;19.00;19.00;14.25
77320;PMS7003;66382;52.252;8.780;2023-02-28T07:07:31;17.75;17.75;13.75
77320;PMS7003;66382;52.252;8.780;2023-02-28T07:09:56;20.25;20.25;15.50
77320;PMS7003;66382;52.252;8.780;2023-02-28T07:12:22;25.50;25.50;18.00
77320;PMS7003;66382;52.252;8.780;2023-02-28T07:14:49;21.75;21.75;17.50
77320;PMS7003;66382;52.252;8.780;2023-02-28T07:17:15;24.00;24.00;18.75
77320;PMS7003;66382;52.252;8.780;2023-02-28T07:19:41;20.50;20.50;16.00
77320;PMS7003;66382;52.252;8.780;2023-02-28T07:22:06;21.00;21.00;17.00
77320;PMS7003;66382;52.252;8.780;2023-02-28T07:24:32;19.50;19.50;16.00
77320;PMS7003;66382;52.252;8.780;2023-02-28T07:26:58;23.25;22.75;17.00
77320;PMS7003;66382;52.252;8.780;2023-02-28T07:29:24;19.00;19.00;15.00
77320;PMS7003;66382;52.252;8.780;2023-02-28T07:31:51;18.50;18.50;13.00
77320;PMS7003;66382;52.252;8.780;2023-02-28T07:34:17;15.50;15.50;12.00
77320;PMS7003;66382;52.252;8.780;2023-02-28T07:36:42;14.50;14.50;12.50
77320;PMS7003;66382;52.252;8.780;2023-02-28T07:39:08;17.00;17.00;11.25
77320;PMS7003;66382;52.252;8.780;2023-02-28T07:41:34;13.25;13.25;9.50
77320;PMS7003;66382;52.252;8.780;2023-02-28T07:44:00;16.50;16.00;12.75
77320;PMS7003;66382;52.252;8.780;2023-02-28T07:46:26;15.75;15.75;11.25
77320;PMS7003;66382;52.252;8.780;2023-02-28T07:48:53;18.00;18.00;13.50
77320;PMS7003;66382;52.252;8.780;2023-02-28T07:51:18;16.50;16.50;12.50
77320;PMS7003;66382;52.252;8.780;2023-02-28T07:53:44;15.00;14.25;11.75
77320;PMS7003;66382;52.252;8.780;2023-02-28T07:56:10;17.75;17.75;12.75
77320;PMS7003;66382;52.252;8.780;2023-02-28T07:58:36;13.25;13.25;11.75
77320;PMS7003;66382;52.252;8.780;2023-02-28T08:01:05;15.50;15.50;12.75
77320;PMS7003;66382;52.252;8.780;2023-02-28T08:03:32;13.00;13.00;12.00
77320;PMS7003;66382;52.252;8.780;2023-02-28T08:05:59;15.75;15.75;12.75
77320;PMS7003;66382;52.252;8.780;2023-02-28T08:08:25;13.00;13.00;11.25
77320;PMS7003;66382;52.252;8.780;2023-02-28T08:10:50;13.75;13.75;11.50
77320;PMS7003;66382;52.252;8.780;2023-02-28T08:13:16;15.50;15.50;13.00
77320;PMS7003;66382;52.252;8.780;2023-02-28T08:15:42;13.00;13.00;9.50
77320;PMS7003;66382;52.252;8.780;2023-02-28T08:18:07;11.25;11.25;10.00
77320;PMS7003;66382;52.252;8.780;2023-02-28T08:20:33;12.50;12.50;10.50
77320;PMS7003;66382;52.252;8.780;2023-02-28T08:23:00;11.00;11.00;9.25
77320;PMS7003;66382;52.252;8.780;2023-02-28T08:25:26;14.00;14.00;10.75
77320;PMS7003;66382;52.252;8.780;2023-02-28T08:27:51;9.00;9.00;8.50
77320;PMS7003;66382;52.252;8.780;2023-02-28T08:30:17;10.00;10.00;8.00
77320;PMS7003;66382;52.252;8.780;2023-02-28T08:32:43;9.00;9.00;8.25
77320;PMS7003;66382;52.252;8.780;2023-02-28T08:35:10;10.50;10.50;9.50
77320;PMS7003;66382;52.252;8.780;2023-02-28T08:37:35;11.00;11.00;9.75
77320;PMS7003;66382;52.252;8.780;2023-02-28T08:40:03;11.33;11.33;9.00
77320;PMS7003;66382;52.252;8.780;2023-02-28T08:42:29;7.00;7.00;5.67
77320;PMS7003;66382;52.252;8.780;2023-02-28T08:44:55;8.00;8.00;8.00
77320;PMS7003;66382;52.252;8.780;2023-02-28T08:47:21;5.00;5.00;4.67
77320;PMS7003;66382;52.252;8.780;2023-02-28T08:49:46;2.00;2.00;1.33
77320;PMS7003;66382;52.252;8.780;2023-02-28T08:52:12;1.00;1.00;1.00
77320;PMS7003;66382;52.252;8.780;2023-02-28T08:54:38;2.33;2.33;2.00
77320;PMS7003;66382;52.252;8.780;2023-02-28T08:57:05;2.00;2.00;2.00
77320;PMS7003;66382;52.252;8.780;2023-02-28T08:59:31;3.00;3.00;2.25
77320;PMS7003;66382;52.252;8.780;2023-02-28T09:01:57;2.00;2.00;2.00
77320;PMS7003;66382;52.252;8.780;2023-02-28T09:04:23;3.00;3.00;2.67
77320;PMS7003;66382;52.252;8.780;2023-02-28T09:06:49;3.33;3.33;3.00
77320;PMS7003;66382;52.252;8.780;2023-02-28T09:09:15;2.00;2.00;2.00
77320;PMS7003;66382;52.252;8.780;2023-02-28T09:11:41;2.00;2.00;1.50
77320;PMS7003;66382;52.252;8.780;2023-02-28T09:14:08;2.33;2.33;2.33
77320;PMS7003;66382;52.252;8.780;2023-02-28T09:16:34;2.75;2.75;2.00
77320;PMS7003;66382;52.252;8.780;2023-02-28T09:19:00;3.00;3.00;2.33
77320;PMS7003;66382;52.252;8.780;2023-02-28T09:21:26;4.00;4.00;3.33
77320;PMS7003;66382;52.252;8.780;2023-02-28T09:23:52;3.75;3.75;3.25
77320;PMS7003;66382;52.252;8.780;2023-02-28T09:26:19;4.33;4.33;4.33
77320;PMS7003;66382;52.252;8.780;2023-02-28T09:28:46;7.00;7.00;5.25
77320;PMS7003;66382;52.252;8.780;2023-02-28T09:31:14;5.00;5.00;4.00
77320;PMS7003;66382;52.252;8.780;2023-02-28T09:33:41;5.00;5.00;4.00
77320;PMS7003;66382;52.252;8.780;2023-02-28T09:36:07;4.67;4.67;4.00
77320;PMS7003;66382;52.252;8.780;2023-02-28T09:38:33;5.00;5.00;4.25
77320;PMS7003;66382;52.252;8.780;2023-02-28T09:41:00;12.00;12.00;8.67
77320;PMS7003;66382;52.252;8.780;2023-02-28T09:43:29;4.00;4.00;3.00
77320;PMS7003;66382;52.252;8.780;2023-02-28T09:46:00;7.67;7.67;6.67
77320;PMS7003;66382;52.252;8.780;2023-02-28T09:48:35;8.00;8.00;7.00
77320;PMS7003;66382;52.252;8.780;2023-02-28T09:51:05;7.67;7.67;7.00
77320;PMS7003;66382;52.252;8.780;2023-02-28T09:53:41;8.00;8.00;6.67
77320;PMS7003;66382;52.252;8.780;2023-02-28T09:56:07;10.00;10.00;8.00
77320;PMS7003;66382;52.252;8.780;2023-02-28T09:58:37;14.75;14.75;13.00
77320;PMS7003;66382;52.252;8.780;2023-02-28T10:01:09;15.00;15.00;13.00
77320;PMS7003;66382;52.252;8.780;2023-02-28T10:03:46;19.50;19.50;15.00
77320;PMS7003;66382;52.252;8.780;2023-02-28T10:06:16;15.25;15.25;11.75
77320;PMS7003;66382;52.252;8.780;2023-02-28T10:08:46;14.00;13.33;12.00
77320;PMS7003;66382;52.252;8.780;2023-02-28T10:11:18;14.00;14.00;12.00
77320;PMS7003;66382;52.252;8.780;2023-02-28T10:13:52;12.00;12.00;10.00
77320;PMS7003;66382;52.252;8.780;2023-02-28T10:16:29;12.67;12.67;11.00
77320;PMS7003;66382;52.252;8.780;2023-02-28T10:19:02;11.00;11.00;9.00
77320;PMS7003;66382;52.252;8.780;2023-02-28T10:21:31;10.33;10.33;9.00
77320;PMS7003;66382;52.252;8.780;2023-02-28T10:24:05;11.00;11.00;9.00
77320;PMS7003;66382;52.252;8.780;2023-02-28T10:26:44;10.33;10.33;9.00
77320;PMS7003;66382;52.252;8.780;2023-02-28T10:29:12;10.67;10.67;8.00
77320;PMS7003;66382;52.252;8.780;2023-02-28T10:31:38;10.00;10.00;9.00
77320;PMS7003;66382;52.252;8.780;2023-02-28T10:34:07;11.33;11.33;9.67
77320;PMS7003;66382;52.252;8.780;2023-02-28T10:36:33;10.25;10.25;9.00
77320;PMS7003;66382;52.252;8.780;2023-02-28T10:38:58;6.00;6.00;5.00
77320;PMS7003;66382;52.252;8.780;2023-02-28T10:41:28;7.00;7.00;6.00
77320;PMS7003;66382;52.252;8.780;2023-02-28T10:44:12;6.75;6.75;5.75
77320;PMS7003;66382;52.252;8.780;2023-02-28T10:46:39;6.25;6.25;5.75
77320;PMS7003;66382;52.252;8.780;2023-02-28T10:49:11;6.75;6.75;5.50
77320;PMS7003;66382;52.252;8.780;2023-02-28T10:51:40;2.50;2.50;1.75
77320;PMS7003;66382;52.252;8.780;2023-02-28T10:54:12;4.25;4.25;4.00
77320;PMS7003;66382;52.252;8.780;2023-02-28T10:56:41;4.67;4.67;4.00
77320;PMS7003;66382;52.252;8.780;2023-02-28T10:59:22;2.33;2.33;2.00
77320;PMS7003;66382;52.252;8.780;2023-02-28T11:01:52;3.00;3.00;2.67
77320;PMS7003;66382;52.252;8.780;2023-02-28T11:04:23;2.00;2.00;2.00
77320;PMS7003;66382;52.252;8.780;2023-02-28T11:06:59;2.67;2.67;2.00
77320;PMS7003;66382;52.252;8.780;2023-02-28T11:09:27;2.50;2.50;2.00
77320;PMS7003;66382;52.252;8.780;2023-02-28T11:11:56;3.25;3.25;3.00
77320;PMS7003;66382;52.252;8.780;2023-02-28T11:14:23;2.00;2.00;2.00
77320;PMS7003;66382;52.252;8.780;2023-02-28T11:16:50;3.00;3.00;3.00
77320;PMS7003;66382;52.252;8.780;2023-02-28T11:19:20;1.25;1.25;1.00
77320;PMS7003;66382;52.252;8.780;2023-02-28T11:21:52;3.00;3.00;2.50
77320;PMS7003;66382;52.252;8.780;2023-02-28T11:24:22;2.00;2.00;2.00
77320;PMS7003;66382;52.252;8.780;2023-02-28T11:26:51;3.25;3.25;3.00
77320;PMS7003;66382;52.252;8.780;2023-02-28T11:29:18;3.00;3.00;3.00
77320;PMS7003;66382;52.252;8.780;2023-02-28T11:34:32;3.00;3.00;2.00
77320;PMS7003;66382;52.252;8.780;2023-02-28T11:36:58;2.00;2.00;2.00
77320;PMS7003;66382;52.252;8.780;2023-02-28T11:39:26;3.00;3.00;2.25
77320;PMS7003;66382;52.252;8.780;2023-02-28T11:41:59;2.00;2.00;2.00
77320;PMS7003;66382;52.252;8.780;2023-02-28T11:44:37;2.50;2.50;2.00
77320;PMS7003;66382;52.252;8.780;2023-02-28T11:47:21;3.25;3.25;2.25
77320;PMS7003;66382;52.252;8.780;2023-02-28T11:50:04;3.00;3.00;2.00
77320;PMS7003;66382;52.252;8.780;2023-02-28T11:52:41;3.75;3.75;3.00
77320;PMS7003;66382;52.252;8.780;2023-02-28T11:55:16;4.00;4.00;2.25
77320;PMS7003;66382;52.252;8.780;2023-02-28T11:57:51;3.00;3.00;2.75
77320;PMS7003;66382;52.252;8.780;2023-02-28T12:00:36;3.00;3.00;2.00
77320;PMS7003;66382;52.252;8.780;2023-02-28T12:03:12;4.00;4.00;3.00
77320;PMS7003;66382;52.252;8.780;2023-02-28T12:05:53;2.00;2.00;1.75
77320;PMS7003;66382;52.252;8.780;2023-02-28T12:08:32;3.00;3.00;3.00
77320;PMS7003;66382;52.252;8.780;2023-02-28T12:11:15;4.00;4.00;3.00
77320;PMS7003;66382;52.252;8.780;2023-02-28T12:13:53;3.25;3.25;3.00
77320;PMS7003;66382;52.252;8.780;2023-02-28T12:16:39;3.00;3.00;3.00
77320;PMS7003;66382;52.252;8.780;2023-02-28T12:19:19;4.25;4.25;4.00
77320;PMS7003;66382;52.252;8.780;2023-02-28T12:21:59;5.00;5.00;4.00
77320;PMS7003;66382;52.252;8.780;2023-02-28T12:24:49;5.00;5.00;4.00
77320;PMS7003;66382;52.252;8.780;2023-02-28T12:27:46;4.00;4.00;4.00
77320;PMS7003;66382;52.252;8.780;2023-02-28T12:30:15;3.75;3.75;3.00
77320;PMS7003;66382;52.252;8.780;2023-02-28T12:32:46;4.00;4.00;3.75
77320;PMS7003;66382;52.252;8.780;2023-02-28T12:35:16;4.75;4.75;4.00
77320;PMS7003;66382;52.252;8.780;2023-02-28T12:37:49;4.50;4.50;4.00
77320;PMS7003;66382;52.252;8.780;2023-02-28T12:40:21;3.00;3.00;3.00
77320;PMS7003;66382;52.252;8.780;2023-02-28T12:42:49;5.00;5.00;3.75
77320;PMS7003;66382;52.252;8.780;2023-02-28T12:45:18;8.00;8.00;6.00
77320;PMS7003;66382;52.252;8.780;2023-02-28T12:47:46;49.25;42.25;25.00
77320;PMS7003;66382;52.252;8.780;2023-02-28T12:50:16;4.00;4.00;4.00
77320;PMS7003;66382;52.252;8.780;2023-02-28T12:52:46;8.00;8.00;6.00
77320;PMS7003;66382;52.252;8.780;2023-02-28T12:55:21;48.50;41.25;26.50
77320;PMS7003;66382;52.252;8.780;2023-02-28T12:57:56;57.50;46.75;30.00
77320;PMS7003;66382;52.252;8.780;2023-02-28T13:00:29;8.00;8.00;7.50
77320;PMS7003;66382;52.252;8.780;2023-02-28T13:09:02;10.25;10.25;9.75
77320;PMS7003;66382;52.252;8.780;2023-02-28T13:11:38;13.00;13.00;10.25
77320;PMS7003;66382;52.252;8.780;2023-02-28T13:14:13;4.75;4.75;4.50
77320;PMS7003;66382;52.252;8.780;2023-02-28T13:16:56;11.75;11.50;10.00
77320;PMS7003;66382;52.252;8.780;2023-02-28T13:19:25;6.00;6.00;5.00
77320;PMS7003;66382;52.252;8.780;2023-02-28T13:21:52;12.50;12.50;10.00
77320;PMS7003;66382;52.252;8.780;2023-02-28T13:24:40;8.50;8.50;5.75
77320;PMS7003;66382;52.252;8.780;2023-02-28T13:27:19;6.00;6.00;5.00
77320;PMS7003;66382;52.252;8.780;2023-02-28T13:29:59;5.00;5.00;4.25
77320;PMS7003;66382;52.252;8.780;2023-02-28T13:32:29;5.00;5.00;4.75
77320;PMS7003;66382;52.252;8.780;2023-02-28T13:37:41;5.75;5.75;5.00
77320;PMS7003;66382;52.252;8.780;2023-02-28T13:42:55;4.00;4.00;3.50
77320;PMS7003;66382;52.252;8.780;2023-02-28T13:45:22;5.00;5.00;4.00
77320;PMS7003;66382;52.252;8.780;2023-02-28T13:47:53;6.00;6.00;5.00
77320;PMS7003;66382;52.252;8.780;2023-02-28T13:50:22;5.00;5.00;4.25
77320;PMS7003;66382;52.252;8.780;2023-02-28T13:52:55;5.00;5.00;4.25
77320;PMS7003;66382;52.252;8.780;2023-02-28T13:55:43;5.00;5.00;4.00
77320;PMS7003;66382;52.252;8.780;2023-02-28T13:58:20;3.00;3.00;3.00
77320;PMS7003;66382;52.252;8.780;2023-02-28T14:01:03;4.00;4.00;4.00
77320;PMS7003;66382;52.252;8.780;2023-02-28T14:03:46;5.25;5.25;4.75
77320;PMS7003;66382;52.252;8.780;2023-02-28T14:06:28;8.25;8.25;5.00
77320;PMS7003;66382;52.252;8.780;2023-02-28T14:08:57;4.50;4.50;3.50
77320;PMS7003;66382;52.252;8.780;2023-02-28T14:11:28;9.25;9.25;7.25
77320;PMS7003;66382;52.252;8.780;2023-02-28T14:13:56;4.00;4.00;3.50
77320;PMS7003;66382;52.252;8.780;2023-02-28T14:16:23;5.50;5.50;5.00
77320;PMS7003;66382;52.252;8.780;2023-02-28T14:18:51;4.50;4.50;4.00
77320;PMS7003;66382;52.252;8.780;2023-02-28T14:21:21;5.50;5.50;4.00
77320;PMS7003;66382;52.252;8.780;2023-02-28T14:24:03;20.25;20.25;17.00
77320;PMS7003;66382;52.252;8.780;2023-02-28T14:29:52;3.25;3.25;3.00
77320;PMS7003;66382;52.252;8.780;2023-02-28T14:32:30;4.25;4.25;4.00
77320;PMS7003;66382;52.252;8.780;2023-02-28T14:35:02;10.25;10.25;8.50
77320;PMS7003;66382;52.252;8.780;2023-02-28T14:37:42;4.00;4.00;3.00
77320;PMS7003;66382;52.252;8.780;2023-02-28T14:40:12;3.75;3.75;3.00
77320;PMS7003;66382;52.252;8.780;2023-02-28T14:42:45;5.00;5.00;4.50